This is the latest recevied weather packets stored in our database for station/object K7SKM. If no packets are shown the sender has not sent any weather packets the latest 10 day(s).
| Time | Temp. | Humidity | Pressure | Rain* | Wind** | Luminosity | Snow |
|---|---|---|---|---|---|---|---|
| 1777842782 | 27.22° C | 39% | 1015.9 hPa | 0 mm | - | 452 W/m² | - |
| 1777842481 | 27.22° C | 39% | 1015.9 hPa | 0 mm | - | 448 W/m² | - |
| 1777842180 | 26.11° C | 40% | 1015.8 hPa | 0 mm | - | 444 W/m² | - |
| 1777841874 | 26.67° C | 39% | 1016 hPa | 0 mm | - | 450 W/m² | - |
| 1777841571 | 26.67° C | 41% | 1016.1 hPa | 0 mm | - | 451 W/m² | - |
| 1777841268 | 27.22° C | 39% | 1016.3 hPa | 0 mm | - | 454 W/m² | - |
| 1777840965 | 27.22° C | 40% | 1016.2 hPa | 0 mm | - | 452 W/m² | - |
| 1777840663 | 26.67° C | 41% | 1016.3 hPa | 0 mm | - | 452 W/m² | - |
| 1777840360 | 26.67° C | 43% | 1016.4 hPa | 0 mm | - | 446 W/m² | - |
| 1777840057 | 26.11° C | 41% | 1016.7 hPa | 0 mm | - | 441 W/m² | - |
| 1777839755 | 26.11° C | 42% | 1016.4 hPa | 0 mm | - | 443 W/m² | - |
| 1777839452 | 26.11° C | 42% | 1016.4 hPa | 0 mm | - | 441 W/m² | - |
| 1777839150 | 26.11° C | 40% | 1016.7 hPa | 0 mm | - | 446 W/m² | - |
| 1777838846 | 27.22° C | 37% | 1016.5 hPa | 0 mm | - | 451 W/m² | - |
| 1777838543 | 27.22° C | 38% | 1016.7 hPa | 0 mm | - | 453 W/m² | - |
| 1777838239 | 27.22° C | 38% | 1016.9 hPa | 0 mm | - | 448 W/m² | - |
| 1777837936 | 27.22° C | 38% | 1016.9 hPa | 0 mm | - | 450 W/m² | - |
| 1777837633 | 27.22° C | 38% | 1017.1 hPa | 0 mm | - | 445 W/m² | - |
| 1777837329 | 26.67° C | 40% | 1017 hPa | 0 mm | - | 445 W/m² | - |
| 1777837026 | 26.11° C | 41% | 1016.9 hPa | 0 mm | - | 444 W/m² | - |
| 1777836722 | 26.67° C | 39% | 1017.2 hPa | 0 mm | - | 443 W/m² | - |
| 1777836417 | 27.22° C | 40% | 1017.4 hPa | 0 mm | - | 441 W/m² | - |
| 1777836113 | 26.11° C | 42% | 1017.2 hPa | 0 mm | - | 435 W/m² | - |
| 1777835810 | 26.67° C | 41% | 1017.3 hPa | 0 mm | - | 432 W/m² | - |
| 1777835507 | 25° C | 46% | 1017.4 hPa | 0 mm | - | 416 W/m² | - |
* Rain latest hour (hover to see other rain measurements)
** Current wind speed in m/s (hover to see current wind gust speed)